createdAt,value
2022-12-26T00:00:29.605Z,96419.31
2022-12-26T00:02:56.318Z,96406.72
2022-12-26T00:05:22.945Z,96405.75
2022-12-26T00:07:49.405Z,96406.06
2022-12-26T00:10:15.863Z,96410.16
2022-12-26T00:12:42.384Z,96406.84
2022-12-26T00:15:08.971Z,96406.47
2022-12-26T00:17:35.521Z,96397.19
2022-12-26T00:20:02.078Z,96409.59
2022-12-26T00:22:28.574Z,96408.53
2022-12-26T00:24:55.123Z,96412.09
2022-12-26T00:27:21.651Z,96402.09
2022-12-26T00:29:48.292Z,96412.50
2022-12-26T00:32:14.815Z,96410.84
2022-12-26T00:34:41.287Z,96405.69
2022-12-26T00:37:07.855Z,96396.66
2022-12-26T00:39:34.417Z,96385.63
2022-12-26T00:42:00.935Z,96389.72
2022-12-26T00:44:27.458Z,96395.19
2022-12-26T00:46:54.257Z,96391.72
2022-12-26T00:49:20.903Z,96397.59
2022-12-26T00:51:47.411Z,96398.97
2022-12-26T00:54:13.974Z,96398.25
2022-12-26T00:56:40.523Z,96398.00
2022-12-26T00:59:07.012Z,96414.63
2022-12-26T01:01:34.055Z,96410.22
2022-12-26T01:04:00.870Z,96409.47
2022-12-26T01:06:27.425Z,96410.50
2022-12-26T01:08:54.258Z,96415.97
2022-12-26T01:11:40.474Z,96400.72
2022-12-26T01:14:08.468Z,96398.81
2022-12-26T01:16:35.048Z,96402.19
2022-12-26T01:19:01.983Z,96411.13
2022-12-26T01:21:28.477Z,96413.13
2022-12-26T01:23:55.275Z,96416.81
2022-12-26T01:26:21.753Z,96413.59
2022-12-26T01:28:48.945Z,96406.53
2022-12-26T01:31:15.791Z,96395.06
2022-12-26T01:33:42.351Z,96399.69
2022-12-26T01:36:09.092Z,96397.31
2022-12-26T01:38:35.707Z,96391.19
2022-12-26T01:41:17.529Z,96395.50
2022-12-26T01:43:51.791Z,96398.13
2022-12-26T01:46:20.176Z,96390.38
2022-12-26T01:48:47.262Z,96391.19
2022-12-26T01:51:15.373Z,96394.03
2022-12-26T01:53:47.361Z,96400.50
2022-12-26T01:56:17.044Z,96396.97
2022-12-26T01:58:46.329Z,96402.69
2022-12-26T02:01:12.925Z,96413.25
2022-12-26T02:03:59.676Z,96421.13
2022-12-26T02:06:26.201Z,96432.94
2022-12-26T02:08:53.382Z,96427.78
2022-12-26T02:11:24.823Z,96431.16
2022-12-26T02:13:51.473Z,96454.28
2022-12-26T02:16:18.886Z,96444.47
2022-12-26T02:18:45.923Z,96447.34
2022-12-26T02:21:27.548Z,96444.72
2022-12-26T02:24:12.872Z,96447.44
2022-12-26T02:26:39.372Z,96446.63
2022-12-26T02:29:15.063Z,96454.16
2022-12-26T02:31:44.413Z,96446.72
2022-12-26T02:34:15.533Z,96446.94
2022-12-26T02:36:57.442Z,96445.56
2022-12-26T02:39:44.689Z,96439.50
2022-12-26T02:42:25.762Z,96444.97
2022-12-26T02:45:27.907Z,96448.53
2022-12-26T02:47:59.312Z,96435.00
2022-12-26T02:50:50.397Z,96442.22
2022-12-26T02:53:50.890Z,96442.00
2022-12-26T02:56:42.794Z,96441.06
2022-12-26T02:59:56.516Z,96447.03
2022-12-26T03:02:49.313Z,96437.06
2022-12-26T03:05:37.483Z,96440.44
2022-12-26T03:08:24.163Z,96437.69
2022-12-26T03:11:10.062Z,96435.78
2022-12-26T03:13:37.420Z,96438.41
2022-12-26T03:16:25.098Z,96449.13
2022-12-26T03:18:58.178Z,96445.34
2022-12-26T03:21:29.032Z,96437.34
2022-12-26T03:23:56.932Z,96437.47
2022-12-26T03:26:41.190Z,96456.78
2022-12-26T03:29:27.591Z,96455.44
2022-12-26T03:31:54.147Z,96461.03
2022-12-26T03:34:21.278Z,96448.84
2022-12-26T03:37:09.829Z,96451.69
2022-12-26T03:40:07.227Z,96453.56
2022-12-26T03:42:52.404Z,96448.41
2022-12-26T03:45:45.964Z,96455.75
2022-12-26T03:48:39.634Z,96446.09
2022-12-26T03:51:31.609Z,96452.28
2022-12-26T03:54:41.222Z,96446.28
2022-12-26T03:57:32.575Z,96445.56
2022-12-26T04:00:25.585Z,96445.56
2022-12-26T04:03:13.693Z,96443.88
2022-12-26T04:06:01.920Z,96440.53
2022-12-26T04:08:50.095Z,96437.69
2022-12-26T04:11:35.793Z,96441.47
2022-12-26T04:14:27.131Z,96434.25
2022-12-26T04:17:19.569Z,96440.63
2022-12-26T04:20:10.158Z,96429.88
2022-12-26T04:23:02.721Z,96438.00
2022-12-26T04:25:51.767Z,96439.03
2022-12-26T04:28:37.993Z,96449.66
2022-12-26T04:31:28.021Z,96444.94
2022-12-26T04:34:16.874Z,96445.66
2022-12-26T04:37:19.848Z,96436.19
2022-12-26T04:40:07.467Z,96443.47
2022-12-26T04:42:53.143Z,96447.75
2022-12-26T04:45:20.783Z,96445.34
2022-12-26T04:48:06.203Z,96441.25
2022-12-26T04:50:32.726Z,96452.69
2022-12-26T04:52:59.285Z,96460.38
2022-12-26T04:55:31.427Z,96445.13
2022-12-26T04:57:58.504Z,96446.50
2022-12-26T05:00:25.964Z,96452.91
2022-12-26T05:03:17.944Z,96448.50
2022-12-26T05:06:05.376Z,96454.59
2022-12-26T05:08:55.540Z,96457.22
2022-12-26T05:11:22.450Z,96456.38
2022-12-26T05:13:49.070Z,96460.38
2022-12-26T05:16:34.197Z,96450.22
2022-12-26T05:19:19.144Z,96459.75
2022-12-26T05:22:04.438Z,96464.59
2022-12-26T05:24:52.432Z,96460.09
2022-12-26T05:27:37.987Z,96466.50
2022-12-26T05:30:05.222Z,96461.53
2022-12-26T05:32:50.151Z,96463.00
2022-12-26T05:35:16.686Z,96470.47
2022-12-26T05:37:43.209Z,96466.16
2022-12-26T05:40:09.865Z,96471.09
2022-12-26T05:42:36.411Z,96482.97
2022-12-26T05:45:02.971Z,96480.22
2022-12-26T05:47:29.500Z,96482.97
2022-12-26T05:49:56.029Z,96493.56
2022-12-26T05:52:22.575Z,96497.66
2022-12-26T05:54:49.079Z,96496.63
2022-12-26T05:57:15.634Z,96493.25
2022-12-26T05:59:42.131Z,96498.00
2022-12-26T06:02:08.754Z,96501.03
2022-12-26T06:04:36.565Z,96514.25
2022-12-26T06:07:03.220Z,96504.69
2022-12-26T06:09:29.953Z,96502.81
2022-12-26T06:11:56.441Z,96495.66
2022-12-26T06:14:23.159Z,96497.88
2022-12-26T06:16:49.818Z,96498.81
2022-12-26T06:19:16.399Z,96490.00
2022-12-26T06:21:42.929Z,96494.53
2022-12-26T06:24:09.432Z,96491.34
2022-12-26T06:26:35.945Z,96491.56
2022-12-26T06:29:02.491Z,96482.72
2022-12-26T06:31:29.027Z,96485.34
2022-12-26T06:33:58.149Z,96481.25
2022-12-26T06:36:25.471Z,96487.38
2022-12-26T06:38:52.676Z,96492.50
2022-12-26T06:41:20.235Z,96502.25
2022-12-26T06:43:47.267Z,96496.91
2022-12-26T06:46:15.383Z,96501.22
2022-12-26T06:48:42.253Z,96498.47
2022-12-26T06:51:13.283Z,96494.69
2022-12-26T06:53:39.949Z,96504.69
2022-12-26T06:56:16.743Z,96506.06
2022-12-26T06:58:43.577Z,96512.25
2022-12-26T07:01:14.428Z,96507.00
2022-12-26T07:03:48.485Z,96508.78
2022-12-26T07:06:30.420Z,96511.09
2022-12-26T07:08:58.392Z,96504.19
2022-12-26T07:11:26.487Z,96500.19
2022-12-26T07:13:53.738Z,96501.03
2022-12-26T07:16:20.417Z,96498.94
2022-12-26T07:18:47.242Z,96505.22
2022-12-26T07:21:15.168Z,96504.56
2022-12-26T07:23:41.871Z,96513.81
2022-12-26T07:26:08.805Z,96502.78
2022-12-26T07:28:35.661Z,96498.16
2022-12-26T07:31:02.773Z,96504.03
2022-12-26T07:33:29.740Z,96512.00
2022-12-26T07:36:00.166Z,96499.19
2022-12-26T07:38:26.682Z,96503.25
2022-12-26T07:40:55.378Z,96495.91
2022-12-26T07:43:22.012Z,96501.44
2022-12-26T07:45:48.621Z,96499.44
2022-12-26T07:48:15.159Z,96492.78
2022-12-26T07:50:42.041Z,96493.63
2022-12-26T07:53:08.563Z,96497.81
2022-12-26T07:55:35.066Z,96497.03
2022-12-26T07:58:01.588Z,96497.13
2022-12-26T08:00:28.111Z,96504.03
2022-12-26T08:02:54.793Z,96500.97
2022-12-26T08:05:21.562Z,96496.50
2022-12-26T08:07:48.706Z,96498.09
2022-12-26T08:10:16.015Z,96500.44
2022-12-26T08:12:42.585Z,96509.53
2022-12-26T08:15:10.199Z,96504.19
2022-12-26T08:17:36.744Z,96502.19
2022-12-26T08:20:03.447Z,96501.25
2022-12-26T08:22:29.932Z,96501.63
2022-12-26T08:24:56.513Z,96498.63
2022-12-26T08:27:23.000Z,96498.25
2022-12-26T08:29:49.560Z,96496.50
2022-12-26T08:32:16.119Z,96506.78
2022-12-26T08:34:42.669Z,96501.75
2022-12-26T08:37:09.206Z,96509.66
2022-12-26T08:39:35.757Z,96513.25
2022-12-26T08:42:02.373Z,96515.88
2022-12-26T08:44:29.315Z,96524.75
2022-12-26T08:46:56.024Z,96524.84
2022-12-26T08:49:22.564Z,96523.56
2022-12-26T08:51:49.074Z,96519.81
2022-12-26T08:54:15.668Z,96515.44
2022-12-26T08:56:42.274Z,96509.69
2022-12-26T08:59:08.843Z,96510.88
2022-12-26T09:01:35.435Z,96513.72
2022-12-26T09:04:03.543Z,96515.25
2022-12-26T09:06:32.412Z,96516.28
2022-12-26T09:08:59.696Z,96519.97
2022-12-26T09:11:27.061Z,96517.91
2022-12-26T09:13:53.866Z,96525.47
2022-12-26T09:16:21.861Z,96522.75
2022-12-26T09:18:48.926Z,96515.56
2022-12-26T09:21:15.999Z,96520.19
2022-12-26T09:23:43.008Z,96514.34
2022-12-26T09:26:14.312Z,96514.41
2022-12-26T09:28:41.119Z,96513.75
2022-12-26T09:31:10.317Z,96503.50
2022-12-26T09:33:38.317Z,96499.06
2022-12-26T09:36:14.302Z,96503.59
2022-12-26T09:38:41.807Z,96508.97
2022-12-26T09:41:31.449Z,96502.78
2022-12-26T09:44:04.187Z,96505.50
2022-12-26T09:46:33.484Z,96513.16
2022-12-26T09:49:29.696Z,96505.66
2022-12-26T09:51:59.159Z,96505.75
2022-12-26T09:54:38.055Z,96499.66
2022-12-26T09:57:13.181Z,96504.56
2022-12-26T09:59:47.696Z,96498.03
2022-12-26T10:02:21.819Z,96496.81
2022-12-26T10:04:48.860Z,96480.94
2022-12-26T10:07:25.907Z,96467.69
2022-12-26T10:10:04.375Z,96465.50
2022-12-26T10:12:37.297Z,96469.66
2022-12-26T10:15:06.961Z,96463.94
2022-12-26T10:17:48.253Z,96461.81
2022-12-26T10:20:26.955Z,96458.72
2022-12-26T10:22:53.455Z,96455.06
2022-12-26T10:25:35.051Z,96452.50
2022-12-26T10:28:02.827Z,96456.94
2022-12-26T10:30:36.450Z,96457.06
2022-12-26T10:33:07.101Z,96445.41
2022-12-26T10:35:42.354Z,96440.25
2022-12-26T10:38:12.015Z,96437.63
2022-12-26T10:40:40.743Z,96443.34
2022-12-26T10:43:26.510Z,96445.63
2022-12-26T10:45:58.859Z,96448.28
2022-12-26T10:48:27.231Z,96449.22
2022-12-26T10:50:53.978Z,96440.69
2022-12-26T10:53:20.788Z,96437.75
2022-12-26T10:55:47.283Z,96427.50
2022-12-26T10:58:20.105Z,96425.56
2022-12-26T11:00:46.765Z,96409.84
2022-12-26T11:03:14.591Z,96405.06
2022-12-26T11:06:07.135Z,96403.75
2022-12-26T11:08:40.715Z,96398.44
2022-12-26T11:11:26.390Z,96406.56
2022-12-26T11:14:01.778Z,96394.66
2022-12-26T11:16:30.605Z,96384.94
2022-12-26T11:18:57.554Z,96374.59
2022-12-26T11:21:25.748Z,96378.84
2022-12-26T11:23:53.240Z,96396.94
2022-12-26T11:26:27.637Z,96395.41
2022-12-26T11:29:12.574Z,96390.16
2022-12-26T11:31:42.834Z,96382.81
2022-12-26T11:34:17.402Z,96377.38
2022-12-26T11:36:49.134Z,96368.03
2022-12-26T11:39:35.370Z,96364.47
2022-12-26T11:42:09.241Z,96373.47
2022-12-26T11:44:37.954Z,96368.44
2022-12-26T11:47:18.023Z,96365.94
2022-12-26T11:50:04.937Z,96365.88
2022-12-26T11:52:31.469Z,96365.34
2022-12-26T11:54:58.021Z,96363.72
2022-12-26T11:57:28.985Z,96354.06
2022-12-26T11:59:55.694Z,96349.72
2022-12-26T12:02:25.117Z,96347.66
2022-12-26T12:04:53.602Z,96343.97
2022-12-26T12:07:38.832Z,96343.44
2022-12-26T12:10:05.589Z,96354.00
2022-12-26T12:12:43.787Z,96351.72
2022-12-26T12:15:10.419Z,96354.28
2022-12-26T12:17:36.925Z,96363.44
2022-12-26T12:20:20.125Z,96366.41
2022-12-26T12:22:49.372Z,96366.16
2022-12-26T12:25:45.123Z,96365.06
2022-12-26T12:28:11.650Z,96368.59
2022-12-26T12:30:47.583Z,96362.78
2022-12-26T12:33:26.150Z,96361.31
2022-12-26T12:35:52.685Z,96359.84
2022-12-26T12:38:19.178Z,96361.66
2022-12-26T12:40:54.825Z,96361.41
2022-12-26T12:43:28.383Z,96358.84
2022-12-26T12:46:03.906Z,96357.97
2022-12-26T12:48:44.953Z,96346.97
2022-12-26T12:51:28.271Z,96345.59
2022-12-26T12:54:13.449Z,96343.75
2022-12-26T12:56:53.359Z,96345.75
2022-12-26T12:59:38.428Z,96348.47
2022-12-26T13:02:13.960Z,96351.41
2022-12-26T13:04:46.035Z,96350.06
2022-12-26T13:07:18.282Z,96345.66
2022-12-26T13:09:48.077Z,96348.59
2022-12-26T13:12:23.310Z,96351.81
2022-12-26T13:14:56.352Z,96350.66
2022-12-26T13:17:25.844Z,96349.91
2022-12-26T13:20:02.636Z,96353.91
2022-12-26T13:22:59.307Z,96357.13
2022-12-26T13:25:28.625Z,96357.44
2022-12-26T13:28:09.480Z,96367.72
2022-12-26T13:30:37.481Z,96357.28
2022-12-26T13:33:04.639Z,96362.19
2022-12-26T13:35:50.029Z,96358.63
2022-12-26T13:38:16.798Z,96354.69
2022-12-26T13:40:53.986Z,96362.59
2022-12-26T13:43:41.377Z,96367.41
2022-12-26T13:46:26.301Z,96368.97
2022-12-26T13:48:57.351Z,96362.31
2022-12-26T13:51:42.320Z,96369.91
2022-12-26T13:54:11.186Z,96372.56
2022-12-26T13:56:45.724Z,96374.59
2022-12-26T13:59:17.493Z,96368.91
2022-12-26T14:02:07.229Z,96366.16
2022-12-26T14:04:46.536Z,96375.09
2022-12-26T14:07:33.304Z,96379.31
2022-12-26T14:10:11.981Z,96373.47
2022-12-26T14:12:41.237Z,96381.88
2022-12-26T14:15:16.613Z,96384.44
2022-12-26T14:18:01.926Z,96366.59
2022-12-26T14:20:43.011Z,96373.31
2022-12-26T14:23:21.863Z,96380.03
2022-12-26T14:25:53.236Z,96378.66
2022-12-26T14:28:55.113Z,96380.09
2022-12-26T14:31:24.621Z,96387.53
2022-12-26T14:33:54.732Z,96385.13
2022-12-26T14:36:26.889Z,96385.72
2022-12-26T14:39:11.640Z,96384.88
2022-12-26T14:42:16.955Z,96385.47
2022-12-26T14:44:44.290Z,96388.25
2022-12-26T14:47:10.998Z,96389.09
2022-12-26T14:49:39.120Z,96385.34
2022-12-26T14:52:24.258Z,96376.84
2022-12-26T14:54:54.163Z,96371.41
2022-12-26T14:57:39.638Z,96367.94
2022-12-26T15:00:21.283Z,96367.66
2022-12-26T15:03:10.679Z,96374.47
2022-12-26T15:05:38.608Z,96377.97
2022-12-26T15:08:05.128Z,96385.75
2022-12-26T15:10:42.609Z,96382.25
2022-12-26T15:13:27.837Z,96384.31
2022-12-26T15:16:19.628Z,96378.03
2022-12-26T15:19:09.549Z,96380.63
2022-12-26T15:21:36.053Z,96381.28
2022-12-26T15:25:00.281Z,96373.75
2022-12-26T15:27:35.742Z,96389.88
2022-12-26T15:30:02.289Z,96397.38
2022-12-26T15:32:47.395Z,96405.44
2022-12-26T15:35:13.988Z,96406.91
2022-12-26T15:37:59.243Z,96399.38
2022-12-26T15:40:28.868Z,96388.50
2022-12-26T15:43:13.662Z,96402.94
2022-12-26T15:45:46.118Z,96401.53
2022-12-26T15:48:18.392Z,96398.44
2022-12-26T15:50:53.689Z,96403.28
2022-12-26T15:53:20.201Z,96413.66
2022-12-26T15:55:47.065Z,96410.81
2022-12-26T15:58:32.447Z,96405.53
2022-12-26T16:00:59.076Z,96401.88
2022-12-26T16:03:29.569Z,96396.00
2022-12-26T16:06:01.288Z,96396.97
2022-12-26T16:08:39.215Z,96393.19
2022-12-26T16:11:12.909Z,96392.00
2022-12-26T16:13:48.968Z,96388.16
2022-12-26T16:16:23.534Z,96389.47
2022-12-26T16:18:50.094Z,96396.72
2022-12-26T16:21:37.534Z,96395.09
2022-12-26T16:24:07.824Z,96391.78
2022-12-26T16:26:38.957Z,96389.28
2022-12-26T16:29:06.023Z,96398.28
2022-12-26T16:31:32.664Z,96400.25
2022-12-26T16:34:00.163Z,96406.19
2022-12-26T16:36:28.134Z,96411.94
2022-12-26T16:38:55.094Z,96411.34
2022-12-26T16:41:25.841Z,96413.97
2022-12-26T16:43:54.284Z,96410.63
2022-12-26T16:46:23.298Z,96416.88
2022-12-26T16:48:54.417Z,96416.88
2022-12-26T16:51:44.063Z,96417.94
2022-12-26T16:54:16.591Z,96410.69
2022-12-26T16:56:43.576Z,96408.53
2022-12-26T16:59:18.280Z,96404.81
2022-12-26T17:01:56.697Z,96414.75
2022-12-26T17:04:24.571Z,96416.44
2022-12-26T17:06:52.411Z,96413.94
2022-12-26T17:09:19.152Z,96420.50
2022-12-26T17:11:51.601Z,96423.63
2022-12-26T17:14:21.466Z,96418.13
2022-12-26T17:16:56.159Z,96429.16
2022-12-26T17:19:26.337Z,96427.16
2022-12-26T17:22:19.264Z,96432.06
2022-12-26T17:24:46.620Z,96433.84
2022-12-26T17:27:23.746Z,96430.50
2022-12-26T17:30:03.701Z,96424.38
2022-12-26T17:32:35.517Z,96424.28
2022-12-26T17:35:07.566Z,96419.09
2022-12-26T17:37:34.264Z,96408.09
2022-12-26T17:40:03.823Z,96406.16
2022-12-26T17:42:37.195Z,96402.47
2022-12-26T17:45:03.823Z,96410.50
2022-12-26T17:47:30.425Z,96412.50
2022-12-26T17:49:57.310Z,96418.03
2022-12-26T17:52:25.263Z,96420.78
2022-12-26T17:54:52.376Z,96421.84
2022-12-26T17:57:20.855Z,96427.22
2022-12-26T17:59:47.861Z,96438.25
2022-12-26T18:02:14.576Z,96434.44
2022-12-26T18:04:41.551Z,96433.94
2022-12-26T18:07:10.408Z,96431.50
2022-12-26T18:09:38.026Z,96443.03
2022-12-26T18:12:04.555Z,96431.06
2022-12-26T18:14:31.045Z,96424.56
2022-12-26T18:16:58.664Z,96419.28
2022-12-26T18:19:25.205Z,96422.53
2022-12-26T18:21:53.650Z,96427.16
2022-12-26T18:24:20.171Z,96432.44
2022-12-26T18:26:46.730Z,96434.31
2022-12-26T18:29:13.245Z,96441.41
2022-12-26T18:31:39.766Z,96442.22
2022-12-26T18:34:06.701Z,96439.59
2022-12-26T18:36:36.501Z,96444.16
2022-12-26T18:39:03.464Z,96440.69
2022-12-26T18:41:29.963Z,96437.94
2022-12-26T18:43:58.112Z,96440.44
2022-12-26T18:46:26.117Z,96450.13
2022-12-26T18:48:57.584Z,96439.59
2022-12-26T18:51:24.706Z,96446.78
2022-12-26T18:53:51.502Z,96431.00
2022-12-26T18:56:19.243Z,96413.75
2022-12-26T18:58:46.422Z,96401.56
2022-12-26T19:01:14.114Z,96389.34
2022-12-26T19:03:41.039Z,96394.84
2022-12-26T19:06:11.700Z,96400.09
2022-12-26T19:08:38.266Z,96406.91
2022-12-26T19:11:04.926Z,96418.53
2022-12-26T19:13:31.454Z,96426.03
2022-12-26T19:16:00.202Z,96427.34
2022-12-26T19:18:26.798Z,96417.75
2022-12-26T19:20:53.315Z,96424.31
2022-12-26T19:23:19.826Z,96419.41
2022-12-26T19:25:46.335Z,96429.81
2022-12-26T19:28:12.863Z,96423.69
2022-12-26T19:30:39.427Z,96434.34
2022-12-26T19:33:06.063Z,96429.06
2022-12-26T19:35:32.582Z,96429.31
2022-12-26T19:37:59.212Z,96436.25
2022-12-26T19:40:25.849Z,96441.72
2022-12-26T19:42:52.547Z,96448.03
2022-12-26T19:45:19.179Z,96456.31
2022-12-26T19:47:45.807Z,96455.38
2022-12-26T19:50:12.686Z,96456.97
2022-12-26T19:52:40.766Z,96456.41
2022-12-26T19:55:08.213Z,96461.41
2022-12-26T19:57:34.727Z,96467.50
2022-12-26T20:00:01.264Z,96485.63
2022-12-26T20:02:27.930Z,96477.41
2022-12-26T20:04:54.516Z,96478.25
2022-12-26T20:07:21.062Z,96487.31
2022-12-26T20:09:47.658Z,96484.19
2022-12-26T20:12:14.227Z,96480.38
2022-12-26T20:14:40.752Z,96474.41
2022-12-26T20:17:09.428Z,96485.03
2022-12-26T20:19:36.712Z,96486.59
2022-12-26T20:22:03.900Z,96496.78
2022-12-26T20:24:30.449Z,96501.81
2022-12-26T20:26:56.959Z,96507.97
2022-12-26T20:29:23.535Z,96516.09
2022-12-26T20:31:50.021Z,96519.00
2022-12-26T20:34:16.741Z,96518.38
2022-12-26T20:36:43.331Z,96511.53
2022-12-26T20:39:14.536Z,96517.53
2022-12-26T20:41:41.484Z,96514.16
2022-12-26T20:44:08.137Z,96515.75
2022-12-26T20:46:35.555Z,96511.59
2022-12-26T20:49:04.705Z,96509.56
2022-12-26T20:51:37.571Z,96513.56
2022-12-26T20:54:05.978Z,96524.16
2022-12-26T20:56:32.697Z,96522.16
2022-12-26T20:58:59.844Z,96538.34
2022-12-26T21:01:26.990Z,96539.66
2022-12-26T21:03:53.992Z,96542.81
2022-12-26T21:06:21.875Z,96552.28
2022-12-26T21:08:49.202Z,96551.78
2022-12-26T21:11:16.954Z,96550.03
2022-12-26T21:13:44.180Z,96547.28
2022-12-26T21:16:22.125Z,96536.06
2022-12-26T21:18:49.147Z,96543.22
2022-12-26T21:21:19.157Z,96546.72
2022-12-26T21:23:45.726Z,96552.00
2022-12-26T21:26:12.388Z,96552.00
2022-12-26T21:28:39.023Z,96557.75
2022-12-26T21:31:09.746Z,96563.34
2022-12-26T21:33:42.201Z,96558.19
2022-12-26T21:36:11.353Z,96563.47
2022-12-26T21:38:38.326Z,96560.63
2022-12-26T21:41:08.846Z,96555.56
2022-12-26T21:43:35.722Z,96565.41
2022-12-26T21:46:06.338Z,96574.25
2022-12-26T21:48:32.970Z,96577.81
2022-12-26T21:50:59.501Z,96590.31
2022-12-26T21:53:26.111Z,96596.53
2022-12-26T21:55:52.631Z,96591.38
2022-12-26T21:58:19.184Z,96597.25
2022-12-26T22:00:45.675Z,96598.09
2022-12-26T22:03:30.746Z,96605.53
2022-12-26T22:05:57.655Z,96610.88
2022-12-26T22:08:24.147Z,96591.00
2022-12-26T22:11:09.105Z,96587.03
2022-12-26T22:13:40.556Z,96574.47
2022-12-26T22:16:08.727Z,96582.25
2022-12-26T22:18:45.521Z,96589.81
2022-12-26T22:21:16.979Z,96580.69
2022-12-26T22:23:44.038Z,96579.97
2022-12-26T22:26:11.769Z,96586.56
2022-12-26T22:28:38.814Z,96575.56
2022-12-26T22:31:05.420Z,96565.50
2022-12-26T22:33:32.212Z,96568.97
2022-12-26T22:36:06.037Z,96575.06
2022-12-26T22:38:32.880Z,96574.47
2022-12-26T22:40:59.598Z,96569.41
2022-12-26T22:43:26.478Z,96560.69
2022-12-26T22:45:53.534Z,96558.06
2022-12-26T22:48:20.451Z,96553.28
2022-12-26T22:50:59.172Z,96555.28
2022-12-26T22:53:26.745Z,96566.44
2022-12-26T22:55:57.701Z,96557.19
2022-12-26T22:58:24.217Z,96548.94
2022-12-26T23:00:50.718Z,96554.09
2022-12-26T23:03:17.468Z,96551.34
2022-12-26T23:05:44.584Z,96557.34
2022-12-26T23:08:16.257Z,96561.44
2022-12-26T23:10:43.027Z,96560.56
2022-12-26T23:13:13.571Z,96563.09
2022-12-26T23:15:46.596Z,96559.25
2022-12-26T23:18:43.229Z,96564.88
2022-12-26T23:21:40.496Z,96575.31
2022-12-26T23:24:08.020Z,96582.75
2022-12-26T23:26:35.057Z,96571.00
2022-12-26T23:29:20.012Z,96573.88
2022-12-26T23:31:46.514Z,96563.44
2022-12-26T23:34:13.075Z,96555.66
2022-12-26T23:36:39.598Z,96555.78
2022-12-26T23:39:06.206Z,96549.94
2022-12-26T23:41:32.853Z,96536.13
2022-12-26T23:43:59.361Z,96539.00
2022-12-26T23:46:25.918Z,96534.81
2022-12-26T23:48:52.469Z,96533.50
2022-12-26T23:51:18.977Z,96525.59
2022-12-26T23:53:45.493Z,96518.19
2022-12-26T23:56:11.984Z,96502.94
2022-12-26T23:58:42.373Z,96494.47
